createdAt,value
2023-09-25T00:01:44.920Z,13.09
2023-09-25T00:04:12.127Z,13.16
2023-09-25T00:06:39.323Z,13.18
2023-09-25T00:09:09.856Z,13.17
2023-09-25T00:11:36.921Z,13.12
2023-09-25T00:14:04.142Z,13.05
2023-09-25T00:16:31.365Z,12.98
2023-09-25T00:18:58.608Z,12.95
2023-09-25T00:21:25.883Z,13.00
2023-09-25T00:23:53.112Z,13.03
2023-09-25T00:26:20.215Z,13.02
2023-09-25T00:28:51.369Z,13.02
2023-09-25T00:31:18.635Z,12.98
2023-09-25T00:33:46.880Z,12.95
2023-09-25T00:36:14.067Z,12.96
2023-09-25T00:38:41.156Z,12.91
2023-09-25T00:41:08.316Z,12.92
2023-09-25T00:43:35.564Z,12.94
2023-09-25T00:46:03.451Z,12.99
2023-09-25T00:48:31.833Z,13.07
2023-09-25T00:51:03.376Z,13.03
2023-09-25T00:53:31.539Z,13.02
2023-09-25T00:55:58.907Z,13.02
2023-09-25T00:58:26.961Z,12.93
2023-09-25T01:00:56.226Z,12.84
2023-09-25T01:03:23.518Z,12.64
2023-09-25T01:05:50.880Z,12.80
2023-09-25T01:08:18.112Z,12.74
2023-09-25T01:10:45.881Z,12.70
2023-09-25T01:13:13.121Z,12.62
2023-09-25T01:15:40.598Z,12.70
2023-09-25T01:18:09.699Z,12.77
2023-09-25T01:20:37.976Z,12.83
2023-09-25T01:23:05.290Z,12.93
2023-09-25T01:25:32.565Z,12.94
2023-09-25T01:27:59.944Z,13.01
2023-09-25T01:30:27.487Z,13.03
2023-09-25T01:32:54.988Z,13.07
2023-09-25T01:35:27.613Z,13.06
2023-09-25T01:37:59.960Z,13.07
2023-09-25T01:40:28.242Z,13.09
2023-09-25T01:42:55.356Z,13.07
2023-09-25T01:45:22.542Z,13.08
2023-09-25T01:47:53.198Z,13.09
2023-09-25T01:50:26.193Z,13.11
2023-09-25T01:52:56.545Z,13.07
2023-09-25T01:55:23.655Z,13.06
2023-09-25T01:57:50.877Z,12.99
2023-09-25T02:00:20.221Z,13.08
2023-09-25T02:02:48.559Z,13.08
2023-09-25T02:05:16.877Z,13.10
2023-09-25T02:07:44.160Z,13.09
2023-09-25T02:10:11.434Z,13.07
2023-09-25T02:12:39.076Z,13.08
2023-09-25T02:15:08.454Z,13.08
2023-09-25T02:17:36.614Z,13.08
2023-09-25T02:20:25.382Z,13.07
2023-09-25T02:22:52.844Z,12.99
2023-09-25T02:25:20.254Z,12.96
2023-09-25T02:27:48.016Z,12.93
2023-09-25T02:30:16.099Z,12.97
2023-09-25T02:32:43.944Z,12.95
2023-09-25T02:35:12.244Z,12.94
2023-09-25T02:37:42.414Z,12.94
2023-09-25T02:40:16.267Z,12.94
2023-09-25T02:42:47.635Z,12.86
2023-09-25T02:45:15.531Z,12.88
2023-09-25T02:47:43.044Z,12.95
2023-09-25T02:50:11.289Z,12.94
2023-09-25T02:52:38.571Z,12.96
2023-09-25T02:55:06.262Z,12.80
2023-09-25T02:57:33.603Z,12.96
2023-09-25T03:00:02.739Z,12.92
2023-09-25T03:02:30.403Z,12.95
2023-09-25T03:04:57.967Z,12.98
2023-09-25T03:07:25.139Z,12.92
2023-09-25T03:09:52.413Z,12.93
2023-09-25T03:12:20.525Z,12.94
2023-09-25T03:14:49.630Z,12.86
2023-09-25T03:17:16.760Z,12.84
2023-09-25T03:19:43.973Z,12.86
2023-09-25T03:22:11.084Z,12.78
2023-09-25T03:24:38.342Z,12.83
2023-09-25T03:27:05.448Z,12.83
2023-09-25T03:29:32.555Z,12.82
2023-09-25T03:31:59.789Z,12.72
2023-09-25T03:34:29.192Z,12.74
2023-09-25T03:36:56.276Z,12.72
2023-09-25T03:39:23.405Z,12.72
2023-09-25T03:41:50.576Z,12.71
2023-09-25T03:44:18.087Z,12.67
2023-09-25T03:46:45.187Z,12.65
2023-09-25T03:49:12.365Z,12.69
2023-09-25T03:51:39.506Z,12.63
2023-09-25T03:54:06.749Z,12.63
2023-09-25T03:56:33.948Z,12.63
2023-09-25T03:59:01.019Z,12.55
2023-09-25T04:01:28.410Z,12.57
2023-09-25T04:03:55.779Z,12.57
2023-09-25T04:06:23.064Z,12.56
2023-09-25T04:08:50.752Z,12.54
2023-09-25T04:11:19.913Z,12.53
2023-09-25T04:13:48.447Z,12.52
2023-09-25T04:16:15.730Z,12.49
2023-09-25T04:18:44.115Z,12.26
2023-09-25T04:21:19.043Z,12.46
2023-09-25T04:23:46.437Z,12.44
2023-09-25T04:26:13.615Z,12.42
2023-09-25T04:28:44.440Z,12.39
2023-09-25T04:31:12.849Z,12.44
2023-09-25T04:33:42.805Z,12.46
2023-09-25T04:36:11.993Z,12.42
2023-09-25T04:38:39.403Z,12.40
2023-09-25T04:41:07.214Z,12.43
2023-09-25T04:43:34.475Z,12.42
2023-09-25T04:46:02.443Z,12.43
2023-09-25T04:48:31.361Z,12.45
2023-09-25T04:50:59.002Z,12.45
2023-09-25T04:53:26.454Z,12.45
2023-09-25T04:55:54.038Z,12.46
2023-09-25T04:58:21.383Z,12.47
2023-09-25T05:00:49.984Z,12.49
2023-09-25T05:03:17.536Z,12.49
2023-09-25T05:05:46.199Z,12.49
2023-09-25T05:08:13.852Z,12.46
2023-09-25T05:10:41.142Z,12.49
2023-09-25T05:13:08.370Z,12.56
2023-09-25T05:15:36.252Z,12.59
2023-09-25T05:18:04.280Z,12.63
2023-09-25T05:20:31.539Z,12.64
2023-09-25T05:22:58.897Z,12.69
2023-09-25T05:25:26.261Z,12.71
2023-09-25T05:27:55.924Z,12.97
2023-09-25T05:30:23.630Z,13.11
2023-09-25T05:32:54.877Z,13.14
2023-09-25T05:35:22.613Z,13.16
2023-09-25T05:37:50.825Z,13.16
2023-09-25T05:40:19.092Z,13.17
2023-09-25T05:42:48.119Z,13.18
2023-09-25T05:45:17.565Z,13.07
2023-09-25T05:47:46.493Z,13.22
2023-09-25T05:50:14.403Z,13.23
2023-09-25T05:52:41.866Z,13.27
2023-09-25T05:55:09.952Z,13.34
2023-09-25T05:57:37.474Z,13.32
2023-09-25T06:00:24.558Z,13.38
2023-09-25T06:02:52.250Z,13.41
2023-09-25T06:05:19.627Z,13.44
2023-09-25T06:07:46.773Z,13.48
2023-09-25T06:10:13.989Z,13.52
2023-09-25T06:12:41.370Z,13.55
2023-09-25T06:15:12.199Z,13.56
2023-09-25T06:17:41.264Z,13.61
2023-09-25T06:20:17.587Z,13.64
2023-09-25T06:22:46.128Z,13.72
2023-09-25T06:25:19.377Z,13.71
2023-09-25T06:27:47.985Z,13.84
2023-09-25T06:30:16.263Z,13.88
2023-09-25T06:32:43.543Z,13.92
2023-09-25T06:35:10.782Z,13.99
2023-09-25T06:37:39.614Z,14.04
2023-09-25T06:40:11.697Z,14.10
2023-09-25T06:42:40.558Z,14.13
2023-09-25T06:45:10.816Z,14.10
2023-09-25T06:47:38.904Z,14.23
2023-09-25T06:50:07.074Z,14.30
2023-09-25T06:52:34.218Z,14.37
2023-09-25T06:55:01.331Z,14.43
2023-09-25T06:57:28.532Z,14.48
2023-09-25T06:59:55.733Z,14.49
2023-09-25T07:02:23.007Z,14.57
2023-09-25T07:04:50.698Z,14.68
2023-09-25T07:07:18.119Z,14.77
2023-09-25T07:09:45.489Z,14.94
2023-09-25T07:12:15.881Z,15.10
2023-09-25T07:14:49.873Z,15.25
2023-09-25T07:17:17.807Z,15.42
2023-09-25T07:19:44.993Z,15.59
2023-09-25T07:22:12.224Z,15.67
2023-09-25T07:24:39.879Z,15.78
2023-09-25T07:27:07.056Z,15.88
2023-09-25T07:29:42.052Z,16.03
2023-09-25T07:32:10.123Z,16.16
2023-09-25T07:34:38.162Z,16.24
2023-09-25T07:37:06.769Z,16.36
2023-09-25T07:39:36.356Z,16.52
2023-09-25T07:42:03.682Z,16.67
2023-09-25T07:44:34.797Z,16.77
2023-09-25T07:47:08.012Z,16.78
2023-09-25T07:49:41.819Z,16.86
2023-09-25T07:52:19.779Z,17.02
2023-09-25T07:54:50.067Z,17.18
2023-09-25T07:57:20.693Z,17.29
2023-09-25T07:59:49.054Z,17.35
2023-09-25T08:02:21.360Z,17.48
2023-09-25T08:04:51.986Z,17.77
2023-09-25T08:07:20.368Z,17.97
2023-09-25T08:09:47.881Z,18.21
2023-09-25T08:12:15.191Z,18.50
2023-09-25T08:14:42.449Z,18.57
2023-09-25T08:17:10.166Z,18.80
2023-09-25T08:19:37.660Z,18.97
2023-09-25T08:22:05.252Z,19.09
2023-09-25T08:24:32.524Z,19.19
2023-09-25T08:27:01.295Z,19.38
2023-09-25T08:29:28.475Z,19.60
2023-09-25T08:31:55.717Z,19.66
2023-09-25T08:34:23.239Z,19.73
2023-09-25T08:36:50.572Z,19.68
2023-09-25T08:39:18.936Z,19.74
2023-09-25T08:41:47.560Z,19.84
2023-09-25T08:44:17.475Z,19.89
2023-09-25T08:46:45.427Z,19.93
2023-09-25T08:49:13.629Z,20.04
2023-09-25T08:51:41.266Z,20.25
2023-09-25T08:54:09.756Z,20.43
2023-09-25T08:56:38.259Z,20.57
2023-09-25T08:59:05.700Z,20.51
2023-09-25T09:01:33.559Z,20.68
2023-09-25T09:04:00.823Z,20.71
2023-09-25T09:06:28.335Z,20.76
2023-09-25T09:08:57.869Z,20.84
2023-09-25T09:11:25.053Z,20.89
2023-09-25T09:13:52.262Z,20.92
2023-09-25T09:16:21.153Z,20.94
2023-09-25T09:18:48.912Z,20.97
2023-09-25T09:21:28.646Z,21.05
2023-09-25T09:23:58.492Z,21.11
2023-09-25T09:26:26.928Z,21.09
2023-09-25T09:28:57.511Z,21.16
2023-09-25T09:31:24.593Z,20.98
2023-09-25T09:33:56.844Z,20.78
2023-09-25T09:36:24.990Z,20.60
2023-09-25T09:38:53.729Z,20.44
2023-09-25T09:41:21.158Z,20.44
2023-09-25T09:43:49.028Z,20.33
2023-09-25T09:46:17.690Z,20.27
2023-09-25T09:48:48.116Z,20.24
2023-09-25T09:51:19.074Z,20.24
2023-09-25T09:53:46.743Z,20.09
2023-09-25T09:56:15.988Z,20.11
2023-09-25T09:58:43.271Z,20.07
2023-09-25T10:01:11.088Z,20.04
2023-09-25T10:03:38.744Z,20.10
2023-09-25T10:06:06.785Z,20.54
2023-09-25T10:08:33.930Z,20.94
2023-09-25T10:11:21.522Z,21.20
2023-09-25T10:13:48.747Z,21.35
2023-09-25T10:16:17.256Z,21.42
2023-09-25T10:18:44.705Z,21.52
2023-09-25T10:21:16.224Z,21.64
2023-09-25T10:23:55.754Z,21.77
2023-09-25T10:26:25.934Z,21.92
2023-09-25T10:29:16.499Z,21.99
2023-09-25T10:31:48.401Z,21.99
2023-09-25T10:34:15.674Z,22.07
2023-09-25T10:36:45.452Z,22.03
2023-09-25T10:39:17.042Z,22.01
2023-09-25T10:41:47.189Z,22.13
2023-09-25T10:44:15.426Z,22.30
2023-09-25T10:46:42.971Z,22.13
2023-09-25T10:49:10.500Z,21.96
2023-09-25T10:51:37.703Z,21.75
2023-09-25T10:54:05.182Z,21.66
2023-09-25T10:56:34.397Z,21.60
2023-09-25T10:59:02.548Z,21.53
2023-09-25T11:01:31.366Z,21.38
2023-09-25T11:04:02.679Z,21.22
2023-09-25T11:06:30.639Z,21.15
2023-09-25T11:09:08.274Z,21.20
2023-09-25T11:11:35.642Z,21.17
2023-09-25T11:14:03.997Z,21.21
2023-09-25T11:16:31.348Z,21.27
2023-09-25T11:19:12.220Z,21.44
2023-09-25T11:21:41.383Z,21.53
2023-09-25T11:24:09.973Z,21.71
2023-09-25T11:26:38.494Z,21.82
2023-09-25T11:29:09.436Z,21.77
2023-09-25T11:31:54.383Z,21.71
2023-09-25T11:34:27.798Z,21.58
2023-09-25T11:36:55.148Z,21.51
2023-09-25T11:39:22.641Z,21.49
2023-09-25T11:41:49.911Z,21.48
2023-09-25T11:44:17.079Z,21.55
2023-09-25T11:46:44.569Z,21.58
2023-09-25T11:49:13.771Z,21.60
2023-09-25T11:51:41.563Z,21.58
2023-09-25T11:54:09.230Z,21.70
2023-09-25T11:56:36.568Z,21.66
2023-09-25T11:59:03.781Z,21.68
2023-09-25T12:01:31.045Z,21.69
2023-09-25T12:03:58.835Z,21.64
2023-09-25T12:06:27.953Z,21.58
2023-09-25T12:08:56.471Z,21.42
2023-09-25T12:11:23.907Z,21.43
2023-09-25T12:13:51.710Z,21.39
2023-09-25T12:16:19.982Z,21.42
2023-09-25T12:18:48.113Z,21.44
2023-09-25T12:21:15.645Z,21.49
2023-09-25T12:23:44.227Z,21.37
2023-09-25T12:26:11.521Z,21.49
2023-09-25T12:28:39.238Z,21.45
2023-09-25T12:31:06.450Z,21.52
2023-09-25T12:33:33.744Z,21.59
2023-09-25T12:36:01.109Z,21.71
2023-09-25T12:38:28.806Z,21.81
2023-09-25T12:40:57.633Z,21.85
2023-09-25T12:43:25.422Z,21.78
2023-09-25T12:45:53.122Z,21.75
2023-09-25T12:48:21.299Z,21.72
2023-09-25T12:50:50.428Z,21.73
2023-09-25T12:53:20.325Z,21.77
2023-09-25T12:55:47.598Z,21.55
2023-09-25T12:58:14.807Z,21.72
2023-09-25T13:00:42.164Z,21.68
2023-09-25T13:03:10.052Z,21.64
2023-09-25T13:05:37.698Z,21.61
2023-09-25T13:08:05.329Z,21.62
2023-09-25T13:10:32.900Z,21.59
2023-09-25T13:13:00.296Z,21.56
2023-09-25T13:15:27.782Z,21.56
2023-09-25T13:17:55.090Z,21.53
2023-09-25T13:20:22.552Z,21.54
2023-09-25T13:22:49.901Z,21.56
2023-09-25T13:25:17.264Z,21.59
2023-09-25T13:27:51.122Z,21.55
2023-09-25T13:30:20.674Z,21.56
2023-09-25T13:32:48.231Z,21.56
2023-09-25T13:35:16.021Z,21.37
2023-09-25T13:37:44.162Z,21.58
2023-09-25T13:40:22.516Z,21.58
2023-09-25T13:42:49.990Z,21.52
2023-09-25T13:45:17.163Z,21.57
2023-09-25T13:47:45.220Z,21.61
2023-09-25T13:50:14.019Z,21.61
2023-09-25T13:52:42.351Z,21.61
2023-09-25T13:55:11.881Z,21.61
2023-09-25T13:57:40.228Z,21.61
2023-09-25T14:00:09.901Z,21.65
2023-09-25T14:02:42.141Z,21.64
2023-09-25T14:05:10.238Z,21.58
2023-09-25T14:07:37.475Z,21.61
2023-09-25T14:10:05.272Z,21.59
2023-09-25T14:12:32.729Z,21.57
2023-09-25T14:15:00.047Z,21.52
2023-09-25T14:17:27.337Z,21.50
2023-09-25T14:19:54.520Z,21.50
2023-09-25T14:22:21.830Z,21.51
2023-09-25T14:24:49.047Z,21.48
2023-09-25T14:27:18.498Z,21.47
2023-09-25T14:29:45.597Z,21.43
2023-09-25T14:32:13.017Z,21.41
2023-09-25T14:34:40.208Z,21.36
2023-09-25T14:37:07.449Z,21.33
2023-09-25T14:39:34.721Z,21.29
2023-09-25T14:42:01.984Z,21.24
2023-09-25T14:44:29.159Z,21.23
2023-09-25T14:46:56.670Z,21.20
2023-09-25T14:49:24.140Z,21.15
2023-09-25T14:51:54.235Z,21.12
2023-09-25T14:54:21.527Z,21.13
2023-09-25T14:56:48.724Z,21.13
2023-09-25T14:59:15.958Z,21.09
2023-09-25T15:01:43.473Z,21.11
2023-09-25T15:04:10.812Z,21.10
2023-09-25T15:06:38.068Z,21.07
2023-09-25T15:09:05.359Z,21.07
2023-09-25T15:11:32.536Z,21.06
2023-09-25T15:14:00.340Z,21.01
2023-09-25T15:16:27.705Z,21.02
2023-09-25T15:18:55.001Z,20.99
2023-09-25T15:21:22.158Z,20.96
2023-09-25T15:23:49.624Z,20.94
2023-09-25T15:26:17.028Z,20.92
2023-09-25T15:28:44.341Z,20.89
2023-09-25T15:31:11.865Z,20.87
2023-09-25T15:33:39.232Z,20.81
2023-09-25T15:36:06.591Z,20.78
2023-09-25T15:38:33.834Z,20.73
2023-09-25T15:41:01.118Z,20.71
2023-09-25T15:43:28.196Z,20.71
2023-09-25T15:45:55.568Z,20.68
2023-09-25T15:48:22.841Z,20.66
2023-09-25T15:50:52.150Z,20.64
2023-09-25T15:53:19.379Z,20.61
2023-09-25T15:55:46.479Z,20.57
2023-09-25T15:58:13.773Z,20.56
2023-09-25T16:00:41.256Z,20.54
2023-09-25T16:03:08.575Z,20.50
2023-09-25T16:05:36.013Z,20.48
2023-09-25T16:08:03.245Z,20.44
2023-09-25T16:10:30.482Z,20.42
2023-09-25T16:12:57.690Z,20.36
2023-09-25T16:15:24.816Z,20.37
2023-09-25T16:17:52.010Z,20.34
2023-09-25T16:20:19.990Z,20.27
2023-09-25T16:22:47.061Z,20.29
2023-09-25T16:25:14.429Z,20.23
2023-09-25T16:27:42.082Z,20.22
2023-09-25T16:30:09.552Z,20.20
2023-09-25T16:32:36.714Z,20.14
2023-09-25T16:35:04.050Z,20.13
2023-09-25T16:37:31.199Z,20.13
2023-09-25T16:39:58.497Z,20.12
2023-09-25T16:42:25.722Z,20.08
2023-09-25T16:44:52.849Z,20.06
2023-09-25T16:47:22.093Z,20.00
2023-09-25T16:49:50.557Z,20.02
2023-09-25T16:52:17.651Z,19.98
2023-09-25T16:54:44.957Z,19.90
2023-09-25T16:57:12.064Z,19.96
2023-09-25T16:59:39.326Z,19.94
2023-09-25T17:02:07.327Z,19.91
2023-09-25T17:04:34.736Z,19.86
2023-09-25T17:07:01.935Z,19.88
2023-09-25T17:09:29.190Z,19.81
2023-09-25T17:11:56.339Z,19.86
2023-09-25T17:14:23.497Z,19.77
2023-09-25T17:16:50.809Z,19.75
2023-09-25T17:19:18.007Z,19.76
2023-09-25T17:21:45.209Z,19.78
2023-09-25T17:24:12.482Z,19.77
2023-09-25T17:26:39.589Z,19.72
2023-09-25T17:29:06.743Z,19.71
2023-09-25T17:31:34.015Z,19.70
2023-09-25T17:34:01.291Z,19.73
2023-09-25T17:36:28.406Z,19.68
2023-09-25T17:38:55.718Z,19.70
2023-09-25T17:41:22.957Z,19.66
2023-09-25T17:43:50.249Z,19.69
2023-09-25T17:46:17.687Z,19.63
2023-09-25T17:48:45.114Z,19.68
2023-09-25T17:51:12.764Z,19.62
2023-09-25T17:53:39.994Z,19.66
2023-09-25T17:56:09.867Z,19.62
2023-09-25T17:58:37.169Z,19.65
2023-09-25T18:01:04.580Z,19.65
2023-09-25T18:03:32.046Z,19.60
2023-09-25T18:05:59.398Z,19.62
2023-09-25T18:08:26.564Z,19.57
2023-09-25T18:10:53.949Z,19.59
2023-09-25T18:13:22.275Z,19.60
2023-09-25T18:15:50.633Z,19.58
2023-09-25T18:18:18.218Z,19.59
2023-09-25T18:20:45.687Z,19.57
2023-09-25T18:23:13.267Z,19.52
2023-09-25T18:25:42.408Z,19.55
2023-09-25T18:28:09.773Z,19.55
2023-09-25T18:30:37.881Z,19.40
2023-09-25T18:33:10.681Z,19.53
2023-09-25T18:35:38.577Z,19.53
2023-09-25T18:38:05.680Z,19.49
2023-09-25T18:40:35.957Z,19.45
2023-09-25T18:43:04.518Z,19.43
2023-09-25T18:45:32.338Z,19.46
2023-09-25T18:47:59.969Z,19.44
2023-09-25T18:50:27.155Z,19.43
2023-09-25T18:52:54.312Z,19.42
2023-09-25T18:55:21.596Z,19.42
2023-09-25T18:57:48.736Z,19.39
2023-09-25T19:00:16.214Z,19.41
2023-09-25T19:02:43.407Z,19.40
2023-09-25T19:05:10.730Z,19.40
2023-09-25T19:07:38.102Z,19.23
2023-09-25T19:10:06.148Z,19.34
2023-09-25T19:12:33.520Z,19.34
2023-09-25T19:15:00.979Z,19.35
2023-09-25T19:17:28.088Z,19.35
2023-09-25T19:19:55.201Z,19.31
2023-09-25T19:22:22.350Z,19.32
2023-09-25T19:24:49.519Z,19.30
2023-09-25T19:27:16.670Z,19.28
2023-09-25T19:29:43.825Z,19.29
2023-09-25T19:32:11.295Z,19.29
2023-09-25T19:34:38.634Z,19.28
2023-09-25T19:37:06.018Z,19.25
2023-09-25T19:39:33.269Z,19.27
2023-09-25T19:42:00.460Z,19.26
2023-09-25T19:44:27.757Z,19.27
2023-09-25T19:46:54.963Z,19.25
2023-09-25T19:49:22.340Z,19.23
2023-09-25T19:51:50.592Z,19.23
2023-09-25T19:54:18.116Z,19.20
2023-09-25T19:56:45.261Z,19.16
2023-09-25T19:59:12.489Z,19.20
2023-09-25T20:01:41.972Z,19.18
2023-09-25T20:04:10.270Z,19.14
2023-09-25T20:06:37.831Z,19.16
2023-09-25T20:09:05.188Z,19.13
2023-09-25T20:11:32.288Z,19.13
2023-09-25T20:13:59.508Z,19.10
2023-09-25T20:16:26.979Z,19.13
2023-09-25T20:18:54.397Z,19.12
2023-09-25T20:21:23.243Z,19.12
2023-09-25T20:23:53.198Z,19.11
2023-09-25T20:26:20.306Z,19.08
2023-09-25T20:28:47.508Z,19.10
2023-09-25T20:31:14.792Z,19.06
2023-09-25T20:33:42.092Z,19.10
2023-09-25T20:36:10.113Z,19.08
2023-09-25T20:38:37.804Z,19.06
2023-09-25T20:41:05.029Z,19.09
2023-09-25T20:43:32.176Z,19.09
2023-09-25T20:45:59.947Z,19.01
2023-09-25T20:48:27.093Z,19.02
2023-09-25T20:50:54.205Z,19.04
2023-09-25T20:53:21.493Z,18.99
2023-09-25T20:55:48.978Z,18.99
2023-09-25T20:58:16.405Z,19.02
2023-09-25T21:00:43.729Z,18.98
2023-09-25T21:03:11.207Z,18.87
2023-09-25T21:05:38.470Z,18.94
2023-09-25T21:08:05.898Z,18.99
2023-09-25T21:10:33.086Z,18.98
2023-09-25T21:13:00.377Z,18.94
2023-09-25T21:15:27.549Z,18.98
2023-09-25T21:17:54.739Z,18.96
2023-09-25T21:20:21.949Z,18.92
2023-09-25T21:22:49.078Z,18.95
2023-09-25T21:25:16.389Z,18.94
2023-09-25T21:27:43.894Z,18.90
2023-09-25T21:30:12.792Z,18.90
2023-09-25T21:32:39.837Z,18.90
2023-09-25T21:35:07.320Z,18.88
2023-09-25T21:37:34.601Z,18.73
2023-09-25T21:40:02.069Z,18.83
2023-09-25T21:42:29.261Z,18.85
2023-09-25T21:44:57.147Z,18.85
2023-09-25T21:47:24.370Z,18.85
2023-09-25T21:49:51.613Z,18.86
2023-09-25T21:52:18.960Z,18.84
2023-09-25T21:54:46.342Z,18.80
2023-09-25T21:57:13.648Z,18.81
2023-09-25T21:59:40.736Z,18.81
2023-09-25T22:02:08.629Z,18.76
2023-09-25T22:04:35.810Z,18.82
2023-09-25T22:07:03.419Z,18.81
2023-09-25T22:09:31.125Z,18.81
2023-09-25T22:11:58.530Z,18.80
2023-09-25T22:14:25.805Z,18.81
2023-09-25T22:16:52.942Z,18.80
2023-09-25T22:19:20.185Z,18.80
2023-09-25T22:21:48.554Z,18.80
2023-09-25T22:24:16.494Z,18.79
2023-09-25T22:26:44.097Z,18.79
2023-09-25T22:29:11.347Z,18.79
2023-09-25T22:31:40.822Z,18.76
2023-09-25T22:34:09.063Z,18.77
2023-09-25T22:36:36.235Z,18.77
2023-09-25T22:39:04.061Z,18.74
2023-09-25T22:41:31.222Z,18.75
2023-09-25T22:43:58.624Z,18.73
2023-09-25T22:46:25.939Z,18.72
2023-09-25T22:48:53.155Z,18.74
2023-09-25T22:51:20.458Z,18.71
2023-09-25T22:53:47.867Z,18.73
2023-09-25T22:56:15.001Z,18.73
2023-09-25T22:58:42.141Z,18.70
2023-09-25T23:01:10.122Z,18.70
2023-09-25T23:03:37.442Z,18.67
2023-09-25T23:06:05.667Z,18.71
2023-09-25T23:08:32.901Z,18.68
2023-09-25T23:11:00.092Z,18.69
2023-09-25T23:13:27.332Z,18.67
2023-09-25T23:15:54.634Z,18.67
2023-09-25T23:18:21.829Z,18.63
2023-09-25T23:20:52.754Z,18.65
2023-09-25T23:23:19.953Z,18.63
2023-09-25T23:25:47.102Z,18.67
2023-09-25T23:28:14.725Z,18.65
2023-09-25T23:30:42.007Z,18.67
2023-09-25T23:33:09.322Z,18.62
2023-09-25T23:35:36.611Z,18.60
2023-09-25T23:38:04.245Z,18.64
2023-09-25T23:40:32.126Z,18.54
2023-09-25T23:42:59.667Z,18.62
2023-09-25T23:45:26.864Z,18.57
2023-09-25T23:47:54.438Z,18.59
2023-09-25T23:50:21.817Z,18.58
2023-09-25T23:52:50.114Z,18.53
2023-09-25T23:55:17.447Z,18.55
2023-09-25T23:57:44.689Z,18.54
